createdAt,value
2023-03-26T00:00:42.973Z,0.85
2023-03-26T00:03:18.040Z,0.98
2023-03-26T00:06:02.578Z,1.25
2023-03-26T00:08:36.279Z,0.47
2023-03-26T00:11:11.646Z,1.98
2023-03-26T00:13:44.661Z,1.10
2023-03-26T00:16:18.977Z,0.95
2023-03-26T00:18:52.736Z,1.48
2023-03-26T00:21:27.161Z,1.33
2023-03-26T00:24:03.635Z,1.95
2023-03-26T00:26:37.808Z,1.73
2023-03-26T00:29:12.761Z,1.23
2023-03-26T00:31:45.605Z,1.17
2023-03-26T00:34:17.961Z,0.38
2023-03-26T00:36:53.646Z,0.75
2023-03-26T00:39:26.665Z,3.63
2023-03-26T00:42:06.122Z,1.52
2023-03-26T00:44:38.470Z,0.60
2023-03-26T00:47:10.821Z,0.70
2023-03-26T00:49:46.107Z,1.05
2023-03-26T00:52:18.906Z,1.35
2023-03-26T00:54:51.970Z,0.88
2023-03-26T00:57:35.616Z,2.13
2023-03-26T01:00:16.099Z,1.73
2023-03-26T01:02:48.565Z,2.05
2023-03-26T01:05:45.199Z,1.10
2023-03-26T01:08:26.491Z,0.88
2023-03-26T01:11:02.502Z,2.85
2023-03-26T01:13:37.715Z,1.48
2023-03-26T01:16:24.724Z,1.35
2023-03-26T01:18:58.142Z,2.42
2023-03-26T01:21:31.050Z,2.90
2023-03-26T01:24:06.015Z,1.33
2023-03-26T01:27:09.497Z,3.63
2023-03-26T01:29:46.301Z,1.98
2023-03-26T01:32:30.204Z,2.70
2023-03-26T01:35:18.304Z,1.33
2023-03-26T01:38:01.562Z,1.40
2023-03-26T01:40:41.954Z,1.48
2023-03-26T01:43:25.767Z,2.92
2023-03-26T01:46:01.553Z,7.22
2023-03-26T01:48:36.404Z,2.70
2023-03-26T01:51:10.349Z,2.38
2023-03-26T01:53:46.325Z,3.72
2023-03-26T01:56:25.369Z,3.05
2023-03-26T01:59:09.001Z,0.75
2023-03-26T02:01:47.348Z,2.45
2023-03-26T02:04:25.660Z,0.57
2023-03-26T02:07:05.022Z,1.55
2023-03-26T02:09:45.154Z,1.33
2023-03-26T02:12:21.493Z,3.05
2023-03-26T02:14:53.861Z,1.67
2023-03-26T02:17:29.407Z,2.05
2023-03-26T02:20:10.086Z,1.33
2023-03-26T02:22:45.153Z,1.00
2023-03-26T02:25:19.948Z,2.45
2023-03-26T02:27:54.186Z,3.38
2023-03-26T02:30:28.797Z,0.98
2023-03-26T02:33:03.677Z,1.63
2023-03-26T02:35:45.193Z,0.68
2023-03-26T02:38:18.761Z,3.90
2023-03-26T02:40:51.417Z,3.30
2023-03-26T02:43:25.849Z,2.08
2023-03-26T02:45:58.663Z,0.88
2023-03-26T02:48:50.446Z,1.48
2023-03-26T02:51:29.078Z,1.23
2023-03-26T02:54:10.143Z,1.05
2023-03-26T02:57:00.489Z,1.42
2023-03-26T02:59:52.539Z,0.93
2023-03-26T03:02:48.219Z,3.08
2023-03-26T03:05:37.340Z,1.80
2023-03-26T03:08:33.342Z,0.82
2023-03-26T03:11:35.770Z,1.42
2023-03-26T03:14:08.110Z,0.93
2023-03-26T03:16:41.685Z,1.00
2023-03-26T03:19:15.931Z,2.05
2023-03-26T03:21:48.268Z,1.33
2023-03-26T03:24:20.625Z,2.40
2023-03-26T03:26:56.098Z,1.52
2023-03-26T03:29:38.423Z,2.88
2023-03-26T03:32:31.365Z,2.40
2023-03-26T03:35:08.298Z,2.17
2023-03-26T03:37:41.228Z,3.67
2023-03-26T03:40:14.652Z,3.17
2023-03-26T03:42:47.465Z,3.60
2023-03-26T03:45:27.298Z,4.05
2023-03-26T03:48:27.071Z,2.58
2023-03-26T03:50:59.437Z,3.03
2023-03-26T03:53:36.373Z,2.67
2023-03-26T03:56:09.949Z,5.03
2023-03-26T03:59:05.130Z,3.65
2023-03-26T04:01:42.480Z,2.17
2023-03-26T04:04:23.907Z,1.88
2023-03-26T04:07:07.855Z,3.28
2023-03-26T04:10:09.844Z,2.45
2023-03-26T04:13:00.901Z,2.35
2023-03-26T04:15:51.790Z,3.85
2023-03-26T04:18:25.868Z,2.15
2023-03-26T04:21:02.083Z,3.63
2023-03-26T04:23:36.475Z,3.03
2023-03-26T04:26:19.121Z,3.70
2023-03-26T04:29:16.194Z,2.95
2023-03-26T04:31:50.614Z,2.88
2023-03-26T04:34:24.617Z,3.70
2023-03-26T04:37:24.178Z,2.22
2023-03-26T04:40:08.706Z,2.10
2023-03-26T04:42:45.338Z,2.75
2023-03-26T04:45:24.684Z,4.05
2023-03-26T04:48:01.990Z,6.07
2023-03-26T04:50:34.652Z,4.32
2023-03-26T04:53:12.859Z,5.07
2023-03-26T04:56:30.360Z,4.90
2023-03-26T04:59:25.447Z,4.55
2023-03-26T05:02:00.845Z,6.60
2023-03-26T05:04:39.241Z,5.43
2023-03-26T05:07:16.359Z,6.18
2023-03-26T05:09:53.553Z,6.63
2023-03-26T05:12:38.900Z,5.30
2023-03-26T05:15:15.817Z,6.25
2023-03-26T05:18:03.416Z,5.63
2023-03-26T05:20:47.277Z,6.07
2023-03-26T05:23:19.863Z,6.72
2023-03-26T05:26:01.685Z,9.60
2023-03-26T05:28:34.180Z,9.05
2023-03-26T05:31:14.822Z,11.90
2023-03-26T05:33:51.548Z,7.75
2023-03-26T05:36:24.305Z,7.45
2023-03-26T05:39:08.758Z,4.55
2023-03-26T05:42:07.013Z,7.43
2023-03-26T05:44:54.989Z,6.07
2023-03-26T05:47:32.184Z,6.97
2023-03-26T05:50:06.794Z,7.32
2023-03-26T05:52:40.105Z,7.40
2023-03-26T05:55:32.690Z,9.77
2023-03-26T05:58:24.682Z,5.57
2023-03-26T06:01:29.415Z,4.93
2023-03-26T06:04:20.837Z,6.97
2023-03-26T06:07:09.382Z,6.07
2023-03-26T06:09:44.075Z,3.33
2023-03-26T06:12:16.583Z,6.25
2023-03-26T06:14:50.650Z,6.10
2023-03-26T06:17:28.475Z,6.28
2023-03-26T06:20:12.207Z,9.23
2023-03-26T06:22:47.171Z,6.35
2023-03-26T06:25:25.361Z,10.27
2023-03-26T06:28:09.986Z,5.65
2023-03-26T06:33:48.275Z,9.45
2023-03-26T06:36:20.701Z,7.90
2023-03-26T06:38:55.704Z,6.25
2023-03-26T06:41:34.572Z,5.13
2023-03-26T06:44:29.195Z,6.28
2023-03-26T06:47:20.608Z,4.82
2023-03-26T06:49:55.869Z,5.75
2023-03-26T06:52:44.682Z,5.85
2023-03-26T06:55:39.933Z,4.20
2023-03-26T06:58:26.332Z,5.35
2023-03-26T07:01:02.020Z,4.63
2023-03-26T07:03:53.832Z,5.22
2023-03-26T07:06:45.256Z,3.10
2023-03-26T07:09:36.357Z,5.35
2023-03-26T07:12:27.575Z,3.58
2023-03-26T07:15:24.094Z,3.20
2023-03-26T07:18:19.368Z,4.85
2023-03-26T07:20:54.012Z,5.60
2023-03-26T07:23:28.568Z,3.75
2023-03-26T07:26:25.896Z,3.42
2023-03-26T07:29:15.717Z,5.88
2023-03-26T07:32:18.465Z,3.95
2023-03-26T07:35:25.948Z,3.60
2023-03-26T07:38:33.077Z,3.65
2023-03-26T07:41:39.923Z,3.28
2023-03-26T07:44:50.433Z,4.47
2023-03-26T07:47:44.289Z,6.07
2023-03-26T07:50:18.981Z,4.47
2023-03-26T07:53:10.773Z,3.92
2023-03-26T07:56:11.530Z,2.92
2023-03-26T07:59:13.681Z,3.90
2023-03-26T08:02:40.882Z,3.13
2023-03-26T08:05:34.710Z,3.05
2023-03-26T08:08:36.753Z,9.05
2023-03-26T08:11:39.194Z,3.75
2023-03-26T08:14:24.174Z,5.35
2023-03-26T08:17:06.085Z,3.75
2023-03-26T08:19:58.254Z,5.30
2023-03-26T08:22:36.037Z,5.00
2023-03-26T08:25:27.224Z,3.40
2023-03-26T08:28:26.079Z,7.20
2023-03-26T08:31:02.160Z,3.80
2023-03-26T08:33:37.755Z,4.18
2023-03-26T08:36:10.828Z,3.50
2023-03-26T08:38:44.082Z,3.13
2023-03-26T08:41:46.913Z,3.33
2023-03-26T08:44:58.680Z,6.80
2023-03-26T08:48:07.338Z,4.28
2023-03-26T08:51:16.413Z,4.93
2023-03-26T08:54:18.772Z,3.85
2023-03-26T08:57:01.378Z,2.55
2023-03-26T09:00:01.316Z,3.45
2023-03-26T09:03:14.448Z,3.25
2023-03-26T09:06:24.836Z,2.75
2023-03-26T09:09:35.656Z,2.10
2023-03-26T09:12:36.355Z,6.15
2023-03-26T09:15:59.774Z,5.80
2023-03-26T09:19:08.040Z,2.22
2023-03-26T09:22:07.276Z,1.35
2023-03-26T09:25:13.244Z,1.45
2023-03-26T09:28:06.708Z,1.42
2023-03-26T09:31:03.171Z,2.33
2023-03-26T09:33:55.699Z,1.55
2023-03-26T09:36:54.162Z,2.72
2023-03-26T09:39:37.181Z,1.27
2023-03-26T09:42:21.280Z,2.95
2023-03-26T09:45:31.672Z,0.88
2023-03-26T09:48:28.514Z,2.17
2023-03-26T09:51:12.929Z,1.08
2023-03-26T09:54:02.910Z,2.35
2023-03-26T09:56:46.813Z,1.20
2023-03-26T09:59:36.994Z,1.33
2023-03-26T10:02:45.877Z,0.75
2023-03-26T10:05:44.309Z,0.85
2023-03-26T10:08:35.132Z,3.90
2023-03-26T10:11:17.201Z,1.27
2023-03-26T10:14:04.941Z,0.77
2023-03-26T10:16:47.463Z,0.75
2023-03-26T10:19:31.107Z,3.50
2023-03-26T10:22:13.930Z,1.70
2023-03-26T10:25:13.001Z,0.65
2023-03-26T10:28:00.128Z,0.30
2023-03-26T10:31:00.467Z,0.38
2023-03-26T10:33:41.845Z,0.60
2023-03-26T10:36:28.896Z,1.65
2023-03-26T10:39:37.111Z,1.60
2023-03-26T10:42:40.092Z,1.38
2023-03-26T10:45:24.876Z,0.52
2023-03-26T10:48:16.556Z,1.48
2023-03-26T10:50:59.313Z,1.05
2023-03-26T10:53:37.151Z,0.52
2023-03-26T10:56:23.275Z,1.02
2023-03-26T10:58:57.016Z,1.70
2023-03-26T11:01:44.773Z,2.22
2023-03-26T11:04:41.174Z,2.22
2023-03-26T11:07:20.754Z,1.45
2023-03-26T11:10:00.199Z,0.80
2023-03-26T11:12:43.538Z,1.58
2023-03-26T11:15:23.880Z,0.47
2023-03-26T11:18:07.793Z,1.00
2023-03-26T11:20:45.842Z,1.33
2023-03-26T11:23:30.684Z,1.02
2023-03-26T11:26:12.253Z,0.40
2023-03-26T11:29:31.230Z,1.70
2023-03-26T11:32:10.072Z,0.40
2023-03-26T11:34:49.082Z,0.98
2023-03-26T11:37:29.614Z,0.98
2023-03-26T11:40:10.827Z,1.58
2023-03-26T11:42:44.612Z,0.47
2023-03-26T11:45:21.959Z,1.15
2023-03-26T11:48:01.615Z,1.17
2023-03-26T11:50:38.061Z,1.58
2023-03-26T11:53:12.962Z,0.73
2023-03-26T11:55:51.810Z,0.93
2023-03-26T11:58:30.360Z,0.43
2023-03-26T12:01:13.964Z,2.72
2023-03-26T12:03:58.336Z,1.75
2023-03-26T12:06:32.290Z,0.60
2023-03-26T12:09:14.736Z,2.28
2023-03-26T12:11:48.955Z,0.70
2023-03-26T12:14:24.610Z,0.20
2023-03-26T12:16:58.818Z,0.88
2023-03-26T12:19:38.665Z,0.80
2023-03-26T12:22:29.305Z,1.98
2023-03-26T12:25:15.384Z,0.20
2023-03-26T12:27:49.682Z,0.20
2023-03-26T12:30:25.150Z,0.63
2023-03-26T12:33:00.264Z,1.05
2023-03-26T12:35:35.674Z,0.38
2023-03-26T12:38:21.144Z,0.50
2023-03-26T12:44:44.759Z,1.45
2023-03-26T12:44:50.229Z,0.38
2023-03-26T12:47:58.452Z,1.73
2023-03-26T12:50:14.193Z,2.03
2023-03-26T12:53:05.484Z,1.85
2023-03-26T12:55:58.871Z,2.15
2023-03-26T12:58:52.809Z,1.40
2023-03-26T13:01:33.653Z,1.85
2023-03-26T13:04:27.988Z,2.63
2023-03-26T13:07:10.093Z,0.95
2023-03-26T13:09:56.364Z,0.57
2023-03-26T13:12:40.312Z,0.50
2023-03-26T13:15:25.934Z,0.77
2023-03-26T13:18:15.082Z,0.98
2023-03-26T13:20:50.915Z,0.52
2023-03-26T13:23:38.598Z,0.82
2023-03-26T13:26:21.890Z,0.38
2023-03-26T13:29:06.223Z,0.93
2023-03-26T13:31:48.706Z,0.73
2023-03-26T13:34:33.407Z,0.40
2023-03-26T13:37:14.071Z,0.60
2023-03-26T13:39:59.604Z,1.50
2023-03-26T13:42:42.772Z,1.20
2023-03-26T13:45:42.637Z,0.73
2023-03-26T13:48:21.157Z,0.88
2023-03-26T13:51:01.086Z,0.40
2023-03-26T13:53:41.296Z,1.30
2023-03-26T13:56:19.136Z,0.90
2023-03-26T13:58:58.109Z,0.68
2023-03-26T14:01:34.092Z,0.40
2023-03-26T14:04:17.091Z,0.57
2023-03-26T14:06:56.592Z,0.90
2023-03-26T14:09:34.116Z,0.90
2023-03-26T14:12:21.954Z,0.40
2023-03-26T14:15:00.022Z,2.42
2023-03-26T14:17:39.179Z,0.60
2023-03-26T14:20:39.228Z,0.40
2023-03-26T14:23:52.982Z,0.95
2023-03-26T14:26:46.385Z,0.57
2023-03-26T14:29:56.607Z,2.05
2023-03-26T14:32:45.170Z,0.40
2023-03-26T14:35:30.896Z,0.57
2023-03-26T14:38:29.049Z,2.15
2023-03-26T14:41:21.534Z,0.90
2023-03-26T14:44:48.184Z,0.93
2023-03-26T14:47:23.605Z,0.93
2023-03-26T14:50:30.808Z,0.47
2023-03-26T14:53:11.173Z,0.43
2023-03-26T14:56:01.993Z,0.90
2023-03-26T14:59:22.176Z,0.80
2023-03-26T15:02:37.458Z,1.35
2023-03-26T15:05:45.088Z,0.85
2023-03-26T15:08:49.181Z,1.90
2023-03-26T15:11:29.807Z,0.50
2023-03-26T15:14:23.178Z,1.65
2023-03-26T15:17:29.209Z,1.02
2023-03-26T15:20:47.925Z,1.30
2023-03-26T15:23:52.640Z,0.65
2023-03-26T15:27:04.703Z,7.88
2023-03-26T15:30:19.611Z,1.85
2023-03-26T15:33:33.568Z,0.93
2023-03-26T15:36:38.495Z,0.38
2023-03-26T15:39:43.917Z,1.83
2023-03-26T15:42:44.897Z,2.28
2023-03-26T15:45:33.218Z,1.40
2023-03-26T15:48:19.558Z,2.00
2023-03-26T15:50:57.665Z,1.25
2023-03-26T15:53:39.102Z,1.27
2023-03-26T15:56:26.853Z,0.75
2023-03-26T15:59:10.889Z,1.02
2023-03-26T16:02:01.628Z,2.90
2023-03-26T16:04:50.346Z,0.82
2023-03-26T16:07:40.789Z,1.27
2023-03-26T16:10:22.986Z,0.25
2023-03-26T16:13:22.701Z,1.33
2023-03-26T16:15:57.207Z,0.93
2023-03-26T16:18:35.133Z,0.50
2023-03-26T16:21:47.199Z,1.30
2023-03-26T16:24:25.744Z,0.32
2023-03-26T16:27:08.524Z,3.38
2023-03-26T16:30:21.011Z,0.28
2023-03-26T16:32:57.860Z,0.57
2023-03-26T16:36:01.858Z,1.38
2023-03-26T16:38:49.817Z,0.73
2023-03-26T16:41:26.037Z,1.65
2023-03-26T16:44:15.922Z,1.80
2023-03-26T16:46:57.268Z,3.35
2023-03-26T16:49:43.196Z,4.70
2023-03-26T16:52:22.931Z,6.55
2023-03-26T16:55:06.506Z,15.50
2023-03-26T16:57:47.785Z,14.30
2023-03-26T17:00:48.031Z,27.35
2023-03-26T17:03:38.096Z,12.48
2023-03-26T17:06:26.845Z,11.10
2023-03-26T17:09:14.631Z,7.97
2023-03-26T17:11:57.417Z,8.40
2023-03-26T17:14:38.285Z,9.05
2023-03-26T17:17:29.930Z,8.40
2023-03-26T17:20:11.407Z,6.45
2023-03-26T17:22:47.491Z,5.35
2023-03-26T17:25:45.757Z,6.15
2023-03-26T17:28:41.197Z,8.63
2023-03-26T17:34:44.788Z,5.70
2023-03-26T17:37:47.190Z,3.47
2023-03-26T17:40:30.448Z,0.80
2023-03-26T17:43:09.008Z,2.15
2023-03-26T17:45:43.091Z,1.17
2023-03-26T17:48:21.073Z,1.42
2023-03-26T17:50:57.854Z,5.53
2023-03-26T17:53:33.853Z,5.45
2023-03-26T17:56:14.717Z,4.93
2023-03-26T17:58:51.886Z,3.25
2023-03-26T18:01:29.950Z,7.47
2023-03-26T18:04:05.630Z,5.15
2023-03-26T18:06:56.719Z,8.18
2023-03-26T18:09:42.998Z,11.15
2023-03-26T18:12:42.506Z,14.00
2023-03-26T18:15:42.750Z,9.55
2023-03-26T18:18:20.197Z,7.38
2023-03-26T18:20:54.329Z,8.48
2023-03-26T18:23:34.832Z,8.52
2023-03-26T18:26:13.597Z,13.88
2023-03-26T18:28:52.226Z,12.82
2023-03-26T18:31:26.657Z,14.47
2023-03-26T18:34:10.641Z,15.10
2023-03-26T18:36:42.987Z,15.80
2023-03-26T18:39:16.260Z,7.93
2023-03-26T18:41:49.295Z,12.05
2023-03-26T18:44:21.911Z,7.43
2023-03-26T18:46:54.648Z,11.80
2023-03-26T18:49:29.067Z,9.73
2023-03-26T18:52:01.965Z,11.48
2023-03-26T18:54:35.864Z,12.80
2023-03-26T18:57:15.291Z,10.60
2023-03-26T18:59:50.511Z,17.55
2023-03-26T19:02:25.305Z,18.65
2023-03-26T19:04:58.098Z,16.45
2023-03-26T19:07:30.728Z,14.63
2023-03-26T19:10:03.706Z,17.73
2023-03-26T19:12:38.521Z,32.67
2023-03-26T19:15:14.188Z,23.92
2023-03-26T19:17:50.702Z,17.35
2023-03-26T19:20:25.758Z,14.00
2023-03-26T19:22:58.691Z,16.70
2023-03-26T19:25:36.090Z,13.55
2023-03-26T19:28:16.400Z,7.47
2023-03-26T19:30:53.353Z,9.60
2023-03-26T19:33:33.521Z,9.60
2023-03-26T19:36:17.793Z,9.90
2023-03-26T19:38:52.229Z,10.95
2023-03-26T19:41:31.788Z,11.15
2023-03-26T19:44:19.028Z,15.98
2023-03-26T19:46:53.390Z,17.92
2023-03-26T19:49:29.634Z,19.60
2023-03-26T19:52:12.731Z,20.60
2023-03-26T19:55:00.118Z,25.73
2023-03-26T19:57:35.638Z,31.27
2023-03-26T20:00:13.404Z,18.73
2023-03-26T20:02:46.510Z,23.27
2023-03-26T20:05:22.678Z,23.50
2023-03-26T20:07:57.864Z,18.63
2023-03-26T20:10:30.321Z,26.33
2023-03-26T20:13:02.826Z,22.13
2023-03-26T20:15:38.259Z,28.63
2023-03-26T20:18:11.632Z,33.63
2023-03-26T20:20:44.303Z,29.02
2023-03-26T20:23:16.978Z,21.80
2023-03-26T20:25:53.134Z,17.45
2023-03-26T20:28:25.842Z,26.42
2023-03-26T20:30:59.256Z,23.80
2023-03-26T20:33:32.192Z,23.02
2023-03-26T20:36:09.432Z,25.85
2023-03-26T20:38:42.489Z,30.77
2023-03-26T20:41:17.751Z,17.33
2023-03-26T20:43:50.597Z,16.02
2023-03-26T20:46:31.151Z,16.13
2023-03-26T20:49:05.936Z,13.98
2023-03-26T20:51:41.023Z,20.92
2023-03-26T20:54:16.892Z,23.42
2023-03-26T20:56:49.696Z,22.05
2023-03-26T20:59:25.469Z,27.05
2023-03-26T21:01:59.608Z,16.75
2023-03-26T21:04:31.985Z,22.30
2023-03-26T21:07:14.984Z,24.88
2023-03-26T21:09:50.370Z,22.98
2023-03-26T21:12:29.343Z,18.50
2023-03-26T21:15:07.334Z,18.58
2023-03-26T21:17:44.525Z,29.52
2023-03-26T21:20:18.707Z,84.35
2023-03-26T21:22:58.016Z,63.90
2023-03-26T21:25:38.897Z,46.38
2023-03-26T21:28:35.482Z,62.20
2023-03-26T21:31:17.753Z,43.75
2023-03-26T21:33:51.686Z,38.65
2023-03-26T21:36:24.783Z,32.20
2023-03-26T21:38:58.067Z,32.00
2023-03-26T21:41:37.820Z,45.95
2023-03-26T21:46:44.855Z,43.60
2023-03-26T21:49:18.722Z,37.75
2023-03-26T21:51:51.516Z,32.13
2023-03-26T21:54:26.498Z,31.60
2023-03-26T21:57:15.532Z,23.25
2023-03-26T21:59:57.779Z,32.10
2023-03-26T22:02:37.414Z,30.80
2023-03-26T22:05:14.289Z,23.35
2023-03-26T22:07:54.316Z,27.83
2023-03-26T22:10:26.740Z,24.40
2023-03-26T22:12:59.635Z,16.90
2023-03-26T22:15:33.337Z,7.82
2023-03-26T22:18:06.539Z,9.27
2023-03-26T22:20:40.636Z,16.85
2023-03-26T22:23:12.999Z,30.83
2023-03-26T22:25:45.684Z,22.58
2023-03-26T22:28:18.917Z,17.98
2023-03-26T22:30:51.505Z,16.20
2023-03-26T22:33:23.941Z,12.25
2023-03-26T22:35:57.450Z,12.05
2023-03-26T22:38:30.001Z,10.20
2023-03-26T22:41:02.773Z,8.18
2023-03-26T22:43:35.185Z,6.82
2023-03-26T22:46:07.678Z,7.85
2023-03-26T22:48:40.062Z,8.75
2023-03-26T22:51:13.206Z,4.32
2023-03-26T22:53:45.762Z,6.32
2023-03-26T22:56:18.270Z,6.70
2023-03-26T22:58:50.714Z,12.55
2023-03-26T23:01:24.166Z,15.60
2023-03-26T23:03:56.969Z,13.23
2023-03-26T23:06:30.889Z,9.30
2023-03-26T23:09:06.341Z,9.07
2023-03-26T23:11:39.306Z,8.60
2023-03-26T23:14:11.673Z,7.57
2023-03-26T23:16:44.974Z,10.43
2023-03-26T23:19:17.314Z,19.30
2023-03-26T23:21:50.882Z,24.80
2023-03-26T23:24:25.543Z,22.08
2023-03-26T23:26:58.120Z,19.73
2023-03-26T23:29:31.096Z,21.38
2023-03-26T23:32:04.172Z,18.83
2023-03-26T23:34:56.366Z,15.38
2023-03-26T23:37:34.091Z,11.15
2023-03-26T23:40:09.407Z,11.20
2023-03-26T23:42:41.772Z,6.47
2023-03-26T23:45:14.086Z,10.98
2023-03-26T23:47:46.659Z,13.55
2023-03-26T23:50:19.952Z,16.10
2023-03-26T23:52:53.362Z,8.75
2023-03-26T23:55:26.701Z,15.18
2023-03-26T23:57:58.982Z,12.57
